Terminal Aerodrome Forecast
Issued by NWS Louisville, KY

Home | Current Version | Previous Version | Text Only | Print | Product List | Glossary On
Versions: 1 2 3 4 5 6 7 8 9 10 11 12 13 14 15 16 17
147
FTUS43 KLMK 100830 AAA
TAFSDF
TAF AMD
KSDF 100830Z 1009/1112 28012KT 6SM -SHSN SCT025 BKN035
      TEMPO 1009/1013 1SM -SHSN BKN025
     FM101400 28011KT P6SM VCSH SCT025 BKN035
     FM101900 27010KT P6SM SCT025 BKN035
     FM110300 30004KT P6SM BKN040=

USA.gov is the U.S. government's official web portal to all federal, state and local government web resources and services.